sensor_id;sensor_type;location;lat;lon;timestamp;pressure;altitude;pressure_sealevel;temperature;humidity
10261;BME280;5175;42.606;23.388;2023-08-08T00:01:33;93652.50;;;16.13;100.00
10261;BME280;5175;42.606;23.388;2023-08-08T00:04:00;93640.28;;;16.16;100.00
10261;BME280;5175;42.606;23.388;2023-08-08T00:06:27;93639.19;;;16.17;100.00
10261;BME280;5175;42.606;23.388;2023-08-08T00:08:54;93639.97;;;16.26;100.00
10261;BME280;5175;42.606;23.388;2023-08-08T00:11:20;93650.44;;;16.27;100.00
10261;BME280;5175;42.606;23.388;2023-08-08T00:13:48;93646.47;;;16.34;100.00
10261;BME280;5175;42.606;23.388;2023-08-08T00:16:15;93648.84;;;16.26;100.00
10261;BME280;5175;42.606;23.388;2023-08-08T00:18:42;93649.19;;;16.25;100.00
10261;BME280;5175;42.606;23.388;2023-08-08T00:21:08;93649.50;;;16.32;100.00
10261;BME280;5175;42.606;23.388;2023-08-08T00:23:35;93649.97;;;16.34;100.00
10261;BME280;5175;42.606;23.388;2023-08-08T00:26:02;93660.56;;;16.39;100.00
10261;BME280;5175;42.606;23.388;2023-08-08T00:28:29;93666.44;;;16.41;100.00
10261;BME280;5175;42.606;23.388;2023-08-08T00:30:57;93675.97;;;16.56;100.00
10261;BME280;5175;42.606;23.388;2023-08-08T00:33:23;93667.72;;;16.52;100.00
10261;BME280;5175;42.606;23.388;2023-08-08T00:35:50;93661.03;;;16.41;100.00
10261;BME280;5175;42.606;23.388;2023-08-08T00:38:17;93669.75;;;16.29;100.00
10261;BME280;5175;42.606;23.388;2023-08-08T00:40:44;93675.78;;;16.26;100.00
10261;BME280;5175;42.606;23.388;2023-08-08T00:43:11;93671.47;;;16.00;100.00
10261;BME280;5175;42.606;23.388;2023-08-08T00:45:38;93677.44;;;15.71;100.00
10261;BME280;5175;42.606;23.388;2023-08-08T00:48:08;93677.22;;;15.50;100.00
10261;BME280;5175;42.606;23.388;2023-08-08T00:50:36;93669.53;;;15.35;100.00
10261;BME280;5175;42.606;23.388;2023-08-08T00:53:04;93667.28;;;15.29;100.00
10261;BME280;5175;42.606;23.388;2023-08-08T00:55:31;93661.22;;;15.15;100.00
10261;BME280;5175;42.606;23.388;2023-08-08T00:57:59;93671.44;;;15.04;100.00
10261;BME280;5175;42.606;23.388;2023-08-08T01:00:25;93662.75;;;15.07;100.00
10261;BME280;5175;42.606;23.388;2023-08-08T01:02:52;93660.06;;;15.07;100.00
10261;BME280;5175;42.606;23.388;2023-08-08T01:05:20;93660.22;;;15.11;100.00
10261;BME280;5175;42.606;23.388;2023-08-08T01:07:52;93664.19;;;15.13;100.00
10261;BME280;5175;42.606;23.388;2023-08-08T01:10:22;93668.94;;;15.16;100.00
10261;BME280;5175;42.606;23.388;2023-08-08T01:12:53;93666.13;;;15.21;100.00
10261;BME280;5175;42.606;23.388;2023-08-08T01:15:21;93666.31;;;15.25;100.00
10261;BME280;5175;42.606;23.388;2023-08-08T01:17:49;93668.53;;;15.23;100.00
10261;BME280;5175;42.606;23.388;2023-08-08T01:20:17;93669.41;;;15.10;100.00
10261;BME280;5175;42.606;23.388;2023-08-08T01:22:55;93661.38;;;14.87;100.00
10261;BME280;5175;42.606;23.388;2023-08-08T01:25:26;93670.44;;;15.00;100.00
10261;BME280;5175;42.606;23.388;2023-08-08T01:27:53;93665.19;;;14.95;100.00
10261;BME280;5175;42.606;23.388;2023-08-08T01:30:19;93682.59;;;14.97;100.00
10261;BME280;5175;42.606;23.388;2023-08-08T01:32:46;93667.06;;;14.86;100.00
10261;BME280;5175;42.606;23.388;2023-08-08T01:35:13;93667.47;;;14.79;100.00
10261;BME280;5175;42.606;23.388;2023-08-08T01:37:44;93670.53;;;14.86;100.00
10261;BME280;5175;42.606;23.388;2023-08-08T01:40:13;93665.09;;;14.78;100.00
10261;BME280;5175;42.606;23.388;2023-08-08T01:42:45;93685.75;;;14.69;100.00
10261;BME280;5175;42.606;23.388;2023-08-08T01:45:13;93697.66;;;14.76;100.00
10261;BME280;5175;42.606;23.388;2023-08-08T01:47:41;93703.38;;;14.83;100.00
10261;BME280;5175;42.606;23.388;2023-08-08T01:50:09;93713.13;;;14.79;100.00
10261;BME280;5175;42.606;23.388;2023-08-08T01:52:35;93711.25;;;14.80;100.00
10261;BME280;5175;42.606;23.388;2023-08-08T01:55:03;93715.31;;;14.69;100.00
10261;BME280;5175;42.606;23.388;2023-08-08T01:57:30;93719.47;;;14.61;100.00
10261;BME280;5175;42.606;23.388;2023-08-08T02:00:00;93712.34;;;14.57;100.00
10261;BME280;5175;42.606;23.388;2023-08-08T02:02:29;93729.16;;;14.49;100.00
10261;BME280;5175;42.606;23.388;2023-08-08T02:04:56;93728.28;;;14.53;100.00
10261;BME280;5175;42.606;23.388;2023-08-08T02:07:22;93726.69;;;14.52;100.00
10261;BME280;5175;42.606;23.388;2023-08-08T02:09:49;93722.41;;;14.51;100.00
10261;BME280;5175;42.606;23.388;2023-08-08T02:12:16;93734.75;;;14.52;100.00
10261;BME280;5175;42.606;23.388;2023-08-08T02:14:43;93722.22;;;14.48;100.00
10261;BME280;5175;42.606;23.388;2023-08-08T02:17:11;93724.13;;;14.47;100.00
10261;BME280;5175;42.606;23.388;2023-08-08T02:19:38;93731.69;;;14.45;100.00
10261;BME280;5175;42.606;23.388;2023-08-08T02:22:05;93730.41;;;14.43;100.00
10261;BME280;5175;42.606;23.388;2023-08-08T02:24:31;93743.88;;;14.51;100.00
10261;BME280;5175;42.606;23.388;2023-08-08T02:26:58;93757.31;;;14.51;100.00
10261;BME280;5175;42.606;23.388;2023-08-08T02:29:25;93755.38;;;14.43;100.00
10261;BME280;5175;42.606;23.388;2023-08-08T02:31:52;93753.19;;;14.31;100.00
10261;BME280;5175;42.606;23.388;2023-08-08T02:34:20;93749.41;;;14.32;100.00
10261;BME280;5175;42.606;23.388;2023-08-08T02:36:46;93738.13;;;14.30;100.00
10261;BME280;5175;42.606;23.388;2023-08-08T02:39:13;93750.47;;;14.45;100.00
10261;BME280;5175;42.606;23.388;2023-08-08T02:41:40;93716.28;;;14.23;100.00
10261;BME280;5175;42.606;23.388;2023-08-08T02:44:08;93768.38;;;14.36;100.00
10261;BME280;5175;42.606;23.388;2023-08-08T02:46:34;93768.97;;;14.33;100.00
10261;BME280;5175;42.606;23.388;2023-08-08T02:49:03;93770.78;;;14.37;100.00
10261;BME280;5175;42.606;23.388;2023-08-08T02:51:31;93768.69;;;14.34;100.00
10261;BME280;5175;42.606;23.388;2023-08-08T02:53:58;93746.81;;;14.27;100.00
10261;BME280;5175;42.606;23.388;2023-08-08T02:56:24;93771.97;;;14.31;100.00
10261;BME280;5175;42.606;23.388;2023-08-08T02:58:51;93777.22;;;14.36;100.00
10261;BME280;5175;42.606;23.388;2023-08-08T03:01:18;93778.91;;;14.46;100.00
10261;BME280;5175;42.606;23.388;2023-08-08T03:03:44;93776.28;;;14.55;100.00
10261;BME280;5175;42.606;23.388;2023-08-08T03:06:11;93779.81;;;14.41;100.00
10261;BME280;5175;42.606;23.388;2023-08-08T03:08:39;93783.75;;;14.58;100.00
10261;BME280;5175;42.606;23.388;2023-08-08T03:11:06;93790.84;;;14.40;100.00
10261;BME280;5175;42.606;23.388;2023-08-08T03:13:33;93787.34;;;14.53;100.00
10261;BME280;5175;42.606;23.388;2023-08-08T03:15:59;93780.81;;;14.46;100.00
10261;BME280;5175;42.606;23.388;2023-08-08T03:18:26;93776.72;;;14.48;100.00
10261;BME280;5175;42.606;23.388;2023-08-08T03:20:53;93779.69;;;14.47;100.00
10261;BME280;5175;42.606;23.388;2023-08-08T03:23:20;93779.69;;;14.47;100.00
10261;BME280;5175;42.606;23.388;2023-08-08T03:25:50;93779.91;;;14.50;100.00
10261;BME280;5175;42.606;23.388;2023-08-08T03:28:17;93778.13;;;14.46;100.00
10261;BME280;5175;42.606;23.388;2023-08-08T03:30:43;93783.75;;;14.58;100.00
10261;BME280;5175;42.606;23.388;2023-08-08T03:33:10;93785.63;;;14.57;100.00
10261;BME280;5175;42.606;23.388;2023-08-08T03:35:37;93796.63;;;14.69;100.00
10261;BME280;5175;42.606;23.388;2023-08-08T03:38:04;93799.91;;;14.66;100.00
10261;BME280;5175;42.606;23.388;2023-08-08T03:40:30;93799.91;;;14.66;100.00
10261;BME280;5175;42.606;23.388;2023-08-08T03:42:58;93794.50;;;14.44;100.00
10261;BME280;5175;42.606;23.388;2023-08-08T03:45:25;93806.75;;;14.50;100.00
10261;BME280;5175;42.606;23.388;2023-08-08T03:47:52;93808.63;;;14.50;100.00
10261;BME280;5175;42.606;23.388;2023-08-08T03:50:18;93809.19;;;14.60;100.00
10261;BME280;5175;42.606;23.388;2023-08-08T03:52:45;93806.63;;;14.55;100.00
10261;BME280;5175;42.606;23.388;2023-08-08T03:55:12;93806.41;;;14.65;100.00
10261;BME280;5175;42.606;23.388;2023-08-08T03:57:39;93760.09;;;14.46;100.00
10261;BME280;5175;42.606;23.388;2023-08-08T04:00:08;93796.34;;;14.71;100.00
10261;BME280;5175;42.606;23.388;2023-08-08T04:02:36;93796.63;;;14.69;100.00
10261;BME280;5175;42.606;23.388;2023-08-08T04:05:03;93803.22;;;14.63;100.00
10261;BME280;5175;42.606;23.388;2023-08-08T04:07:30;93802.59;;;14.66;100.00
10261;BME280;5175;42.606;23.388;2023-08-08T04:09:57;93815.94;;;14.71;100.00
10261;BME280;5175;42.606;23.388;2023-08-08T04:12:23;93816.31;;;14.78;100.00
10261;BME280;5175;42.606;23.388;2023-08-08T04:14:50;93830.44;;;14.84;100.00
10261;BME280;5175;42.606;23.388;2023-08-08T04:17:18;93836.69;;;14.79;100.00
10261;BME280;5175;42.606;23.388;2023-08-08T04:19:45;93840.78;;;14.77;100.00
10261;BME280;5175;42.606;23.388;2023-08-08T04:22:13;93840.66;;;14.82;100.00
10261;BME280;5175;42.606;23.388;2023-08-08T04:24:40;93847.66;;;14.69;100.00
10261;BME280;5175;42.606;23.388;2023-08-08T04:27:07;93854.19;;;14.77;100.00
10261;BME280;5175;42.606;23.388;2023-08-08T04:29:34;93848.06;;;14.76;100.00
10261;BME280;5175;42.606;23.388;2023-08-08T04:32:01;93848.72;;;14.82;100.00
10261;BME280;5175;42.606;23.388;2023-08-08T04:34:29;93851.41;;;14.82;100.00
10261;BME280;5175;42.606;23.388;2023-08-08T04:36:55;93858.03;;;14.98;100.00
10261;BME280;5175;42.606;23.388;2023-08-08T04:39:22;93852.78;;;14.93;100.00
10261;BME280;5175;42.606;23.388;2023-08-08T04:41:49;93857.34;;;14.92;100.00
10261;BME280;5175;42.606;23.388;2023-08-08T04:44:15;93865.97;;;15.03;100.00
10261;BME280;5175;42.606;23.388;2023-08-08T04:46:42;93866.19;;;15.07;100.00
10261;BME280;5175;42.606;23.388;2023-08-08T04:49:09;93858.84;;;15.21;100.00
10261;BME280;5175;42.606;23.388;2023-08-08T04:51:37;93859.59;;;15.35;100.00
10261;BME280;5175;42.606;23.388;2023-08-08T04:54:04;93869.03;;;15.46;100.00
10261;BME280;5175;42.606;23.388;2023-08-08T04:56:30;93855.06;;;15.44;100.00
10261;BME280;5175;42.606;23.388;2023-08-08T04:58:57;93850.59;;;15.53;100.00
10261;BME280;5175;42.606;23.388;2023-08-08T05:01:24;93851.41;;;15.62;100.00
10261;BME280;5175;42.606;23.388;2023-08-08T05:03:51;93857.66;;;15.71;100.00
10261;BME280;5175;42.606;23.388;2023-08-08T05:06:18;93864.38;;;15.60;100.00
10261;BME280;5175;42.606;23.388;2023-08-08T05:08:48;93877.50;;;15.61;100.00
10261;BME280;5175;42.606;23.388;2023-08-08T05:11:15;93880.25;;;15.70;100.00
10261;BME280;5175;42.606;23.388;2023-08-08T05:13:42;93893.22;;;15.68;100.00
10261;BME280;5175;42.606;23.388;2023-08-08T05:16:09;93891.38;;;15.77;100.00
10261;BME280;5175;42.606;23.388;2023-08-08T05:18:35;93896.47;;;15.79;100.00
10261;BME280;5175;42.606;23.388;2023-08-08T05:21:02;93907.84;;;15.76;100.00
10261;BME280;5175;42.606;23.388;2023-08-08T05:23:29;93915.31;;;15.79;100.00
10261;BME280;5175;42.606;23.388;2023-08-08T05:25:58;93923.53;;;15.82;100.00
10261;BME280;5175;42.606;23.388;2023-08-08T05:28:24;93936.44;;;15.72;100.00
10261;BME280;5175;42.606;23.388;2023-08-08T05:30:51;93930.28;;;15.71;100.00
10261;BME280;5175;42.606;23.388;2023-08-08T05:33:18;93929.06;;;15.41;100.00
10261;BME280;5175;42.606;23.388;2023-08-08T05:35:44;93925.56;;;15.54;100.00
10261;BME280;5175;42.606;23.388;2023-08-08T05:38:11;93920.97;;;15.55;100.00
10261;BME280;5175;42.606;23.388;2023-08-08T05:40:38;93935.59;;;15.62;100.00
10261;BME280;5175;42.606;23.388;2023-08-08T05:43:06;93940.31;;;15.79;100.00
10261;BME280;5175;42.606;23.388;2023-08-08T05:45:33;93941.03;;;15.71;100.00
10261;BME280;5175;42.606;23.388;2023-08-08T05:48:00;93949.53;;;15.87;100.00
10261;BME280;5175;42.606;23.388;2023-08-08T05:50:27;93947.59;;;15.79;100.00
10261;BME280;5175;42.606;23.388;2023-08-08T05:52:54;93944.50;;;15.94;100.00
10261;BME280;5175;42.606;23.388;2023-08-08T05:55:20;93950.25;;;16.01;100.00
10261;BME280;5175;42.606;23.388;2023-08-08T05:57:47;93954.69;;;16.27;100.00
10261;BME280;5175;42.606;23.388;2023-08-08T06:00:16;93955.25;;;16.47;100.00
10261;BME280;5175;42.606;23.388;2023-08-08T06:02:43;93958.81;;;16.64;100.00
10261;BME280;5175;42.606;23.388;2023-08-08T06:05:10;93969.16;;;16.71;100.00
10261;BME280;5175;42.606;23.388;2023-08-08T06:07:37;93975.47;;;16.36;100.00
10261;BME280;5175;42.606;23.388;2023-08-08T06:10:05;93978.09;;;15.96;100.00
10261;BME280;5175;42.606;23.388;2023-08-08T06:12:32;93971.53;;;15.66;100.00
10261;BME280;5175;42.606;23.388;2023-08-08T06:14:58;93971.91;;;15.74;100.00
10261;BME280;5175;42.606;23.388;2023-08-08T06:17:27;93966.59;;;15.82;100.00
10261;BME280;5175;42.606;23.388;2023-08-08T06:19:53;93968.75;;;16.24;100.00
10261;BME280;5175;42.606;23.388;2023-08-08T06:22:22;93987.97;;;16.62;100.00
10261;BME280;5175;42.606;23.388;2023-08-08T06:24:49;93965.34;;;16.72;100.00
10261;BME280;5175;42.606;23.388;2023-08-08T06:27:15;93974.22;;;16.72;100.00
10261;BME280;5175;42.606;23.388;2023-08-08T06:29:42;93974.41;;;16.76;100.00
10261;BME280;5175;42.606;23.388;2023-08-08T06:32:09;93969.84;;;16.85;100.00
10261;BME280;5175;42.606;23.388;2023-08-08T06:34:37;93965.56;;;16.84;100.00
10261;BME280;5175;42.606;23.388;2023-08-08T06:37:04;93971.91;;;16.88;100.00
10261;BME280;5175;42.606;23.388;2023-08-08T06:39:31;93979.91;;;17.10;100.00
10261;BME280;5175;42.606;23.388;2023-08-08T06:41:57;93972.63;;;17.19;100.00
10261;BME280;5175;42.606;23.388;2023-08-08T06:44:25;93982.47;;;17.24;100.00
10261;BME280;5175;42.606;23.388;2023-08-08T06:46:52;93988.22;;;17.39;100.00
10261;BME280;5175;42.606;23.388;2023-08-08T06:49:19;93966.00;;;17.25;100.00
10261;BME280;5175;42.606;23.388;2023-08-08T06:51:47;93990.31;;;17.51;100.00
10261;BME280;5175;42.606;23.388;2023-08-08T06:54:14;93994.63;;;17.69;100.00
10261;BME280;5175;42.606;23.388;2023-08-08T06:56:41;93995.44;;;17.87;91.69
10261;BME280;5175;42.606;23.388;2023-08-08T06:59:07;93997.00;;;18.05;95.86
10261;BME280;5175;42.606;23.388;2023-08-08T07:01:34;93999.53;;;17.93;92.20
10261;BME280;5175;42.606;23.388;2023-08-08T07:04:01;93996.69;;;17.81;100.00
10261;BME280;5175;42.606;23.388;2023-08-08T07:06:29;93994.16;;;17.76;100.00
10261;BME280;5175;42.606;23.388;2023-08-08T07:08:58;94001.72;;;17.48;96.69
10261;BME280;5175;42.606;23.388;2023-08-08T07:11:24;94002.59;;;17.09;97.39
10261;BME280;5175;42.606;23.388;2023-08-08T07:13:51;94000.63;;;16.92;99.12
10261;BME280;5175;42.606;23.388;2023-08-08T07:16:18;93995.50;;;17.30;97.26
10261;BME280;5175;42.606;23.388;2023-08-08T07:18:44;93997.78;;;17.63;94.07
10261;BME280;5175;42.606;23.388;2023-08-08T07:21:11;93985.56;;;17.65;89.90
10261;BME280;5175;42.606;23.388;2023-08-08T07:23:41;93997.63;;;17.68;92.52
10261;BME280;5175;42.606;23.388;2023-08-08T07:26:09;93987.78;;;17.89;92.51
10261;BME280;5175;42.606;23.388;2023-08-08T07:28:36;94012.03;;;18.40;92.93
10261;BME280;5175;42.606;23.388;2023-08-08T07:31:02;93993.13;;;18.32;84.26
10261;BME280;5175;42.606;23.388;2023-08-08T07:33:29;94019.34;;;17.54;85.73
10261;BME280;5175;42.606;23.388;2023-08-08T07:35:56;94003.91;;;17.37;87.75
10261;BME280;5175;42.606;23.388;2023-08-08T07:38:23;94005.56;;;17.73;87.27
10261;BME280;5175;42.606;23.388;2023-08-08T07:40:50;94004.28;;;17.87;89.60
10261;BME280;5175;42.606;23.388;2023-08-08T07:43:18;94005.38;;;18.29;88.34
10261;BME280;5175;42.606;23.388;2023-08-08T07:45:46;94008.69;;;18.43;82.34
10261;BME280;5175;42.606;23.388;2023-08-08T07:48:12;94000.78;;;18.21;74.94
10261;BME280;5175;42.606;23.388;2023-08-08T07:50:39;94004.16;;;17.84;81.33
10261;BME280;5175;42.606;23.388;2023-08-08T07:53:06;94015.09;;;17.87;81.64
10261;BME280;5175;42.606;23.388;2023-08-08T07:55:33;94008.09;;;18.29;81.64
10261;BME280;5175;42.606;23.388;2023-08-08T07:57:59;94013.47;;;18.55;79.24
10261;BME280;5175;42.606;23.388;2023-08-08T08:00:28;94014.47;;;18.88;76.51
10261;BME280;5175;42.606;23.388;2023-08-08T08:02:54;94016.50;;;19.00;70.16
10261;BME280;5175;42.606;23.388;2023-08-08T08:05:21;94024.25;;;19.10;70.77
10261;BME280;5175;42.606;23.388;2023-08-08T08:07:48;94017.78;;;18.94;70.79
10261;BME280;5175;42.606;23.388;2023-08-08T08:10:15;94009.94;;;18.71;68.75
10261;BME280;5175;42.606;23.388;2023-08-08T08:12:42;94007.50;;;18.79;68.59
10261;BME280;5175;42.606;23.388;2023-08-08T08:15:09;94006.72;;;18.69;70.59
10261;BME280;5175;42.606;23.388;2023-08-08T08:17:37;94003.88;;;19.12;70.43
10261;BME280;5175;42.606;23.388;2023-08-08T08:20:05;93999.34;;;19.54;72.89
10261;BME280;5175;42.606;23.388;2023-08-08T08:22:36;94011.34;;;19.74;70.58
10261;BME280;5175;42.606;23.388;2023-08-08T08:25:03;94008.22;;;19.63;70.39
10261;BME280;5175;42.606;23.388;2023-08-08T08:27:30;94012.75;;;19.51;68.14
10261;BME280;5175;42.606;23.388;2023-08-08T08:29:58;94001.09;;;19.79;69.29
10261;BME280;5175;42.606;23.388;2023-08-08T08:32:25;94007.38;;;19.92;68.25
10261;BME280;5175;42.606;23.388;2023-08-08T08:34:53;94005.47;;;19.92;69.89
10261;BME280;5175;42.606;23.388;2023-08-08T08:37:20;94007.97;;;19.56;69.49
10261;BME280;5175;42.606;23.388;2023-08-08T08:39:47;94007.81;;;19.73;70.50
10261;BME280;5175;42.606;23.388;2023-08-08T08:42:13;94007.44;;;19.83;68.59
10261;BME280;5175;42.606;23.388;2023-08-08T08:44:42;93978.00;;;19.82;71.29
10261;BME280;5175;42.606;23.388;2023-08-08T08:47:11;94002.41;;;20.35;66.28
10261;BME280;5175;42.606;23.388;2023-08-08T08:49:41;94006.56;;;20.12;62.80
10261;BME280;5175;42.606;23.388;2023-08-08T08:52:09;94004.75;;;20.16;64.10
10261;BME280;5175;42.606;23.388;2023-08-08T08:54:36;94006.22;;;20.14;63.81
10261;BME280;5175;42.606;23.388;2023-08-08T08:57:04;93998.50;;;20.04;64.55
10261;BME280;5175;42.606;23.388;2023-08-08T08:59:31;93989.53;;;19.91;67.07
10261;BME280;5175;42.606;23.388;2023-08-08T09:01:59;93995.34;;;19.60;67.60
10261;BME280;5175;42.606;23.388;2023-08-08T09:04:28;93993.03;;;19.50;66.51
10261;BME280;5175;42.606;23.388;2023-08-08T09:06:56;94006.47;;;19.38;68.09
10261;BME280;5175;42.606;23.388;2023-08-08T09:09:24;94003.53;;;19.72;68.51
10261;BME280;5175;42.606;23.388;2023-08-08T09:11:52;94007.81;;;20.15;66.29
10261;BME280;5175;42.606;23.388;2023-08-08T09:14:22;94007.16;;;20.18;63.75
10261;BME280;5175;42.606;23.388;2023-08-08T09:16:50;94000.41;;;20.24;63.54
10261;BME280;5175;42.606;23.388;2023-08-08T09:19:19;93997.19;;;19.68;65.25
10261;BME280;5175;42.606;23.388;2023-08-08T09:21:46;94014.56;;;19.88;65.25
10261;BME280;5175;42.606;23.388;2023-08-08T09:24:13;94012.50;;;20.06;62.38
10261;BME280;5175;42.606;23.388;2023-08-08T09:26:41;93999.56;;;20.65;62.54
10261;BME280;5175;42.606;23.388;2023-08-08T09:29:10;94004.72;;;20.25;63.64
10261;BME280;5175;42.606;23.388;2023-08-08T09:31:37;94008.22;;;20.58;62.59
10261;BME280;5175;42.606;23.388;2023-08-08T09:34:05;94003.22;;;20.48;60.94
10261;BME280;5175;42.606;23.388;2023-08-08T09:36:33;94023.28;;;20.68;60.08
10261;BME280;5175;42.606;23.388;2023-08-08T09:39:00;94013.63;;;21.03;59.65
10261;BME280;5175;42.606;23.388;2023-08-08T09:41:27;94016.00;;;20.92;59.36
10261;BME280;5175;42.606;23.388;2023-08-08T09:43:55;94023.63;;;20.78;62.10
10261;BME280;5175;42.606;23.388;2023-08-08T09:46:23;94025.16;;;20.55;61.41
10261;BME280;5175;42.606;23.388;2023-08-08T09:48:50;94025.59;;;20.90;59.75
10261;BME280;5175;42.606;23.388;2023-08-08T09:51:18;94028.81;;;21.16;59.55
10261;BME280;5175;42.606;23.388;2023-08-08T09:53:47;94031.09;;;21.26;57.75
10261;BME280;5175;42.606;23.388;2023-08-08T09:56:15;94028.56;;;21.09;59.18
10261;BME280;5175;42.606;23.388;2023-08-08T09:58:42;94028.78;;;21.04;58.06
10261;BME280;5175;42.606;23.388;2023-08-08T10:01:11;94017.34;;;20.21;60.87
10261;BME280;5175;42.606;23.388;2023-08-08T10:03:40;94027.84;;;19.81;59.81
10261;BME280;5175;42.606;23.388;2023-08-08T10:06:08;94016.41;;;19.75;62.34
10261;BME280;5175;42.606;23.388;2023-08-08T10:08:35;94016.84;;;20.39;61.40
10261;BME280;5175;42.606;23.388;2023-08-08T10:11:02;94012.78;;;20.78;59.58
10261;BME280;5175;42.606;23.388;2023-08-08T10:13:32;94015.13;;;20.55;58.40
10261;BME280;5175;42.606;23.388;2023-08-08T10:16:04;94013.69;;;20.17;61.24
10261;BME280;5175;42.606;23.388;2023-08-08T10:18:32;94012.63;;;20.50;59.89
10261;BME280;5175;42.606;23.388;2023-08-08T10:20:59;94016.13;;;20.51;59.04
10261;BME280;5175;42.606;23.388;2023-08-08T10:23:26;94010.50;;;20.68;57.30
10261;BME280;5175;42.606;23.388;2023-08-08T10:26:02;94006.84;;;20.52;57.61
10261;BME280;5175;42.606;23.388;2023-08-08T10:28:31;94011.91;;;20.98;59.25
10261;BME280;5175;42.606;23.388;2023-08-08T10:31:00;94007.31;;;21.11;55.65
10261;BME280;5175;42.606;23.388;2023-08-08T10:33:38;94002.69;;;21.48;57.14
10261;BME280;5175;42.606;23.388;2023-08-08T10:36:07;93998.41;;;21.10;56.93
10261;BME280;5175;42.606;23.388;2023-08-08T10:38:41;93995.03;;;21.26;54.33
10261;BME280;5175;42.606;23.388;2023-08-08T10:41:10;93985.28;;;21.25;52.62
10261;BME280;5175;42.606;23.388;2023-08-08T10:43:37;93998.03;;;21.60;55.06
10261;BME280;5175;42.606;23.388;2023-08-08T10:46:06;93984.25;;;21.53;52.33
10261;BME280;5175;42.606;23.388;2023-08-08T10:48:33;93982.38;;;21.81;52.63
10261;BME280;5175;42.606;23.388;2023-08-08T10:51:00;93981.63;;;22.21;52.42
10261;BME280;5175;42.606;23.388;2023-08-08T10:53:28;93996.41;;;21.96;51.74
10261;BME280;5175;42.606;23.388;2023-08-08T10:55:59;93980.22;;;21.99;53.68
10261;BME280;5175;42.606;23.388;2023-08-08T10:58:37;93976.94;;;21.81;52.64
10261;BME280;5175;42.606;23.388;2023-08-08T11:01:04;93966.56;;;22.11;53.06
10261;BME280;5175;42.606;23.388;2023-08-08T11:03:34;93968.09;;;21.08;54.64
10261;BME280;5175;42.606;23.388;2023-08-08T11:06:01;93971.78;;;21.52;54.82
10261;BME280;5175;42.606;23.388;2023-08-08T11:08:30;93958.38;;;21.44;53.33
10261;BME280;5175;42.606;23.388;2023-08-08T11:10:58;93972.56;;;21.65;53.02
10261;BME280;5175;42.606;23.388;2023-08-08T11:13:25;93974.59;;;21.80;53.61
10261;BME280;5175;42.606;23.388;2023-08-08T11:15:52;93973.91;;;21.71;54.59
10261;BME280;5175;42.606;23.388;2023-08-08T11:18:19;93969.72;;;21.86;52.45
10261;BME280;5175;42.606;23.388;2023-08-08T11:20:47;93968.09;;;21.97;52.99
10261;BME280;5175;42.606;23.388;2023-08-08T11:23:14;93957.72;;;22.14;52.19
10261;BME280;5175;42.606;23.388;2023-08-08T11:25:43;93976.44;;;22.59;50.62
10261;BME280;5175;42.606;23.388;2023-08-08T11:28:11;93956.50;;;21.72;51.53
10261;BME280;5175;42.606;23.388;2023-08-08T11:30:40;93972.16;;;22.30;50.54
10261;BME280;5175;42.606;23.388;2023-08-08T11:33:08;93961.09;;;21.83;52.35
10261;BME280;5175;42.606;23.388;2023-08-08T11:35:34;93968.28;;;22.16;51.94
10261;BME280;5175;42.606;23.388;2023-08-08T11:38:02;93947.72;;;21.51;51.77
10261;BME280;5175;42.606;23.388;2023-08-08T11:40:30;93971.63;;;21.97;52.94
10261;BME280;5175;42.606;23.388;2023-08-08T11:42:59;93958.50;;;22.42;52.24
10261;BME280;5175;42.606;23.388;2023-08-08T11:45:28;93976.56;;;22.63;49.46
10261;BME280;5175;42.606;23.388;2023-08-08T11:50:23;93971.75;;;21.76;51.83
10261;BME280;5175;42.606;23.388;2023-08-08T11:52:51;93960.81;;;22.13;52.32
10261;BME280;5175;42.606;23.388;2023-08-08T11:55:18;93962.72;;;22.40;52.84
10261;BME280;5175;42.606;23.388;2023-08-08T11:57:47;93970.09;;;22.67;50.87
10261;BME280;5175;42.606;23.388;2023-08-08T12:00:16;93964.94;;;22.50;51.18
10261;BME280;5175;42.606;23.388;2023-08-08T12:02:43;93949.38;;;22.78;50.23
10261;BME280;5175;42.606;23.388;2023-08-08T12:05:12;93956.84;;;23.28;47.85
10261;BME280;5175;42.606;23.388;2023-08-08T12:07:40;93947.44;;;22.63;48.63
10261;BME280;5175;42.606;23.388;2023-08-08T12:10:15;93947.00;;;22.33;52.22
10261;BME280;5175;42.606;23.388;2023-08-08T12:12:42;93952.63;;;22.68;50.66
10261;BME280;5175;42.606;23.388;2023-08-08T12:15:10;93938.66;;;23.17;50.39
10261;BME280;5175;42.606;23.388;2023-08-08T12:17:38;93940.75;;;23.54;49.08
10261;BME280;5175;42.606;23.388;2023-08-08T12:20:06;93950.47;;;23.55;47.18
10261;BME280;5175;42.606;23.388;2023-08-08T12:22:34;93941.78;;;22.56;49.20
10261;BME280;5175;42.606;23.388;2023-08-08T12:25:01;93917.25;;;23.15;51.58
10261;BME280;5175;42.606;23.388;2023-08-08T12:27:29;93932.59;;;23.39;51.25
10261;BME280;5175;42.606;23.388;2023-08-08T12:29:56;93932.78;;;22.83;50.42
10261;BME280;5175;42.606;23.388;2023-08-08T12:32:25;93947.03;;;22.77;49.90
10261;BME280;5175;42.606;23.388;2023-08-08T12:34:55;93939.72;;;21.82;51.65
10261;BME280;5175;42.606;23.388;2023-08-08T12:37:22;93935.31;;;21.77;51.81
10261;BME280;5175;42.606;23.388;2023-08-08T12:39:49;93932.16;;;21.88;50.21
10261;BME280;5175;42.606;23.388;2023-08-08T12:42:16;93934.03;;;22.42;50.12
10261;BME280;5175;42.606;23.388;2023-08-08T12:44:43;93929.19;;;23.11;52.40
10261;BME280;5175;42.606;23.388;2023-08-08T12:47:10;93934.59;;;23.77;48.66
10261;BME280;5175;42.606;23.388;2023-08-08T12:49:36;93926.38;;;23.92;49.89
10261;BME280;5175;42.606;23.388;2023-08-08T12:52:05;93936.41;;;23.88;45.98
10261;BME280;5175;42.606;23.388;2023-08-08T12:54:32;93932.84;;;24.03;47.55
10261;BME280;5175;42.606;23.388;2023-08-08T12:56:58;93932.03;;;24.41;46.02
10261;BME280;5175;42.606;23.388;2023-08-08T12:59:25;93931.75;;;24.88;46.32